Terminal Aerodrome Forecast
Issued by NWS Wichita, KS

Home | Current Version | Previous Version | Graphics & Text | Print | Product List | Glossary On
Versions: 1 2 3 4 5 6 7 8 9 10 11 12 13 14 15 16 17 18 19 20 21 22
111
FTUS43 KICT 231013 AAD
TAFICT
TAF AMD
KICT 231013Z 2310/2406 15010KT P6SM SCT008 BKN010
      TEMPO 2310/2314 BKN008
     FM231500 18015G22KT P6SM SCT020 BKN040
     FM231800 18020G30KT P6SM SCT040
     FM240100 18015G21KT P6SM SCT250=

USA.gov is the U.S. government's official web portal to all federal, state and local government web resources and services.